Time;durP1;ratioP1;P1;durP2;ratioP2;P2;SDS_P1;SDS_P2;PMS_P1;PMS_P2;Temp;Humidity;BMP_temperature;BMP_pressure;BME280_temperature;BME280_humidity;BME280_pressure;Samples;Min_cycle;Max_cycle;Signal;HPM_P1;HPM_P2
2022/07/11 00:02:15;;;;;;;6.35;3.50;;;;;;;20.02;53.68;102326.72;4987506;28;114535;-64
2022/07/11 00:04:43;;;;;;;5.60;4.13;;;;;;;19.98;53.78;102318.91;4987797;28;113936;-64
2022/07/11 00:07:10;;;;;;;5.95;4.15;;;;;;;19.95;54.00;102314.59;4985418;28;124634;-64
2022/07/11 00:09:38;;;;;;;7.68;4.00;;;;;;;19.92;54.26;102314.75;4988064;28;122803;-65
2022/07/11 00:12:07;;;;;;;5.53;4.00;;;;;;;19.93;54.22;102304.88;4981961;28;115135;-65
2022/07/11 00:14:34;;;;;;;6.40;3.97;;;;;;;19.93;54.26;102310.25;4983884;28;115264;-65
2022/07/11 00:17:01;;;;;;;6.72;3.83;;;;;;;19.92;54.36;102313.91;4986915;28;124355;-65
2022/07/11 00:19:28;;;;;;;9.20;3.53;;;;;;;19.92;54.63;102309.38;4984776;28;123859;-65
2022/07/11 00:21:55;;;;;;;6.85;3.90;;;;;;;19.93;54.69;102315.63;4979975;28;114347;-65
2022/07/11 00:24:24;;;;;;;5.78;3.72;;;;;;;19.94;54.86;102302.09;4985819;28;114088;-65
2022/07/11 00:26:52;;;;;;;5.88;3.90;;;;;;;19.94;54.97;102310.16;4990507;28;123987;-65
2022/07/11 00:29:19;;;;;;;5.05;3.25;;;;;;;19.96;54.85;102310.94;4990891;28;125317;-65
2022/07/11 00:31:46;;;;;;;4.90;3.05;;;;;;;19.97;54.92;102307.28;4991532;28;114647;-65
2022/07/11 00:34:15;;;;;;;6.32;3.45;;;;;;;19.98;55.20;102303.63;4989420;28;115004;-66
2022/07/11 00:36:44;;;;;;;6.13;3.22;;;;;;;19.97;55.17;102301.91;4982158;28;124433;-65
2022/07/11 00:39:11;;;;;;;5.40;3.13;;;;;;;19.98;55.17;102314.38;4989852;28;123837;-65
2022/07/11 00:41:38;;;;;;;5.38;3.60;;;;;;;19.97;55.51;102307.28;4989261;28;114352;-66
2022/07/11 00:44:05;;;;;;;8.00;3.60;;;;;;;19.98;55.42;102303.63;4991458;28;112894;-65
2022/07/11 00:46:32;;;;;;;7.28;3.17;;;;;;;19.99;55.53;102305.38;4990392;28;123987;-65
2022/07/11 00:49:00;;;;;;;6.80;4.13;;;;;;;20.01;55.67;102307.97;4986687;28;123985;-65
2022/07/11 00:51:28;;;;;;;5.30;3.78;;;;;;;20.01;55.64;102308.81;4988507;28;113997;-65
2022/07/11 00:53:57;;;;;;;6.00;4.13;;;;;;;20.03;56.05;102301.53;4985904;28;114308;-65
2022/07/11 00:56:27;;;;;;;7.68;4.32;;;;;;;20.07;55.90;102304.03;4989962;28;124069;-65
2022/07/11 00:58:55;;;;;;;4.93;3.95;;;;;;;20.09;55.92;102307.50;4987726;28;123846;-65
2022/07/11 01:01:22;;;;;;;5.85;4.03;;;;;;;20.09;55.86;102302.97;4991474;28;114254;-66
2022/07/11 01:03:50;;;;;;;7.45;4.20;;;;;;;20.10;55.89;102306.50;4984714;28;114903;-65
2022/07/11 01:06:17;;;;;;;6.97;4.47;;;;;;;20.12;55.94;102300.09;4987097;28;124658;-66
2022/07/11 01:08:44;;;;;;;10.00;5.07;;;;;;;20.12;55.84;102300.09;4987136;28;123989;-65
2022/07/11 01:11:15;;;;;;;9.70;4.80;;;;;;;20.15;56.07;102299.03;4989072;28;114348;-66
2022/07/11 01:13:43;;;;;;;9.85;5.10;;;;;;;20.17;56.02;102291.72;4987282;28;114229;-66
2022/07/11 01:16:21;;;;;;;8.77;5.00;;;;;;;20.19;56.06;102295.19;4978034;28;125308;-67
2022/07/11 01:18:52;;;;;;;9.52;5.10;;;;;;;20.21;56.20;102291.47;4989383;28;123950;-66
2022/07/11 01:21:23;;;;;;;7.70;4.50;;;;;;;20.22;56.07;102295.00;4987343;28;114074;-65
2022/07/11 01:23:54;;;;;;;7.93;4.85;;;;;;;20.25;56.25;102294.81;4986578;28;113841;-65
2022/07/11 01:26:23;;;;;;;8.43;5.30;;;;;;;20.27;56.15;102292.91;4985069;28;124517;-66
2022/07/11 01:28:51;;;;;;;8.00;4.82;;;;;;;20.29;56.19;102282.91;4980377;28;124347;-66
2022/07/11 01:31:19;;;;;;;9.43;4.88;;;;;;;20.30;56.08;102281.91;4987919;28;114067;-66
2022/07/11 01:33:47;;;;;;;7.07;4.63;;;;;;;20.33;56.15;102291.66;4990586;28;113832;-66
2022/07/11 01:36:14;;;;;;;10.05;4.90;;;;;;;20.33;56.17;102286.25;4990678;28;124070;-66
2022/07/11 01:38:41;;;;;;;9.20;4.35;;;;;;;20.33;56.29;102287.13;4988697;28;124734;-66
2022/07/11 01:41:08;;;;;;;6.43;4.05;;;;;;;20.34;56.35;102286.16;4988842;28;114366;-66
2022/07/11 01:43:35;;;;;;;6.68;4.43;;;;;;;20.35;56.24;102279.81;4989520;28;114275;-66
2022/07/11 01:46:03;;;;;;;7.63;4.43;;;;;;;20.36;56.50;102291.44;4989749;28;124377;-66
2022/07/11 01:48:30;;;;;;;6.60;4.35;;;;;;;20.36;56.27;102286.94;4983217;28;123678;-66
2022/07/11 01:50:57;;;;;;;7.50;4.47;;;;;;;20.37;56.29;102288.66;4990450;28;115261;-66
2022/07/11 01:53:24;;;;;;;6.50;4.13;;;;;;;20.37;56.52;102288.66;4990869;28;114763;-66
2022/07/11 01:55:52;;;;;;;7.32;4.50;;;;;;;20.36;56.59;102286.94;4988652;28;125716;-66
2022/07/11 01:58:39;;;;;;;7.13;4.70;;;;;;;20.37;56.35;102288.66;4987332;28;123923;-66
2022/07/11 02:01:06;;;;;;;5.50;3.97;;;;;;;20.37;56.52;102288.66;4987418;28;114703;-66
2022/07/11 02:03:33;;;;;;;5.88;4.40;;;;;;;20.37;56.41;102288.66;4990408;28;113771;-67
2022/07/11 02:06:00;;;;;;;9.27;4.22;;;;;;;20.37;56.48;102294.03;4988921;28;124636;-66
2022/07/11 02:08:28;;;;;;;6.78;4.22;;;;;;;20.38;56.53;102289.50;4988033;28;122928;-66
2022/07/11 02:10:55;;;;;;;6.72;3.97;;;;;;;20.38;56.48;102290.41;4989167;28;114888;-65
2022/07/11 02:13:23;;;;;;;5.75;4.13;;;;;;;20.39;56.75;102297.47;4988457;28;113931;-65
2022/07/11 02:15:51;;;;;;;7.88;4.30;;;;;;;20.39;56.88;102297.47;4985166;28;124173;-65
2022/07/11 02:18:19;;;;;;;10.70;4.40;;;;;;;20.41;56.74;102295.56;4988556;28;122892;-65
2022/07/11 02:20:48;;;;;;;7.72;4.60;;;;;;;20.41;56.70;102290.19;4991361;28;114963;-65
2022/07/11 02:23:16;;;;;;;7.10;4.32;;;;;;;20.43;56.76;102293.63;4987291;28;114285;-65
2022/07/11 02:25:44;;;;;;;8.73;4.43;;;;;;;20.43;56.74;102293.63;4988239;28;123824;-65
2022/07/11 02:28:13;;;;;;;6.82;4.30;;;;;;;20.42;56.65;102297.31;5001735;28;122870;-65
2022/07/11 02:30:43;;;;;;;6.75;4.35;;;;;;;20.43;56.82;102298.16;4991559;28;114593;-63
2022/07/11 02:33:13;;;;;;;9.05;4.65;;;;;;;20.43;56.82;102293.63;4986813;28;114807;-64
2022/07/11 02:35:45;;;;;;;6.85;3.90;;;;;;;20.43;56.93;102288.25;4988614;28;123877;-63
2022/07/11 02:38:14;;;;;;;8.48;4.60;;;;;;;20.45;56.92;102290.00;4989409;28;122930;-64
2022/07/11 02:40:44;;;;;;;8.10;4.68;;;;;;;20.47;57.26;102282.69;4988722;28;115164;-64
2022/07/11 02:43:12;;;;;;;6.95;4.63;;;;;;;20.48;56.94;102281.72;4985934;28;115004;-63
2022/07/11 02:45:40;;;;;;;12.55;4.70;;;;;;;20.50;56.91;102277.13;4987693;28;125022;-64
2022/07/11 02:48:07;;;;;;;7.25;4.53;;;;;;;20.52;57.14;102280.56;4984803;28;123822;-63
2022/07/11 02:50:34;;;;;;;8.05;4.53;;;;;;;20.54;57.12;102275.94;4990037;28;114111;-63
2022/07/11 02:53:02;;;;;;;8.25;4.25;;;;;;;20.55;57.10;102280.34;4987391;28;114580;-65
2022/07/11 02:55:29;;;;;;;7.03;4.50;;;;;;;20.58;57.15;102274.78;4989535;28;123625;-65
2022/07/11 02:57:56;;;;;;;8.63;4.57;;;;;;;20.59;56.97;102281.91;4986124;28;124494;-65
2022/07/11 03:00:23;;;;;;;8.43;4.45;;;;;;;20.61;56.98;102280.00;4987864;28;114346;-64
2022/07/11 03:02:50;;;;;;;7.18;4.82;;;;;;;20.63;57.02;102280.78;4984630;28;113685;-65
2022/07/11 03:05:18;;;;;;;8.90;4.70;;;;;;;20.65;57.06;102280.69;4983321;28;123574;-65
2022/07/11 03:07:45;;;;;;;8.57;4.60;;;;;;;20.65;57.01;102281.53;4988847;28;124277;-65
2022/07/11 03:10:12;;;;;;;8.80;4.45;;;;;;;20.66;57.03;102277.88;4988691;28;114381;-65
2022/07/11 03:12:40;;;;;;;7.78;4.40;;;;;;;20.66;57.12;102277.88;4988298;28;114380;-65
2022/07/11 03:15:08;;;;;;;10.48;5.00;;;;;;;20.69;57.15;102288.44;4985316;28;124789;-65
2022/07/11 03:17:35;;;;;;;7.43;4.60;;;;;;;20.69;57.02;102280.38;4984695;28;123980;-65
2022/07/11 03:20:04;;;;;;;9.32;4.63;;;;;;;20.70;57.26;102284.81;4989657;28;114148;-65
2022/07/11 03:22:31;;;;;;;6.68;4.95;;;;;;;20.71;57.13;102291.03;4983855;28;113919;-65
2022/07/11 03:25:00;;;;;;;7.05;4.65;;;;;;;20.70;57.21;102290.19;4986167;28;123972;-65
2022/07/11 03:27:27;;;;;;;9.88;5.03;;;;;;;20.71;57.19;102286.50;4986163;28;123461;-64
2022/07/11 03:29:54;;;;;;;8.18;4.78;;;;;;;20.73;57.14;102292.66;4987889;28;115433;-64
2022/07/11 03:32:22;;;;;;;9.10;4.53;;;;;;;20.73;57.24;102295.34;4990393;28;115132;-64
2022/07/11 03:37:41;;;;;;;7.90;4.95;;;;;;;20.70;57.24;102284.81;4983656;28;123634;-65
2022/07/11 03:40:09;;;;;;;9.10;5.00;;;;;;;20.70;57.16;102292.88;4984335;28;114620;-65
2022/07/11 03:42:36;;;;;;;9.38;5.03;;;;;;;20.68;57.31;102297.50;4986868;28;114473;-64
2022/07/11 03:45:05;;;;;;;8.63;4.93;;;;;;;20.66;57.32;102299.41;4983016;28;124325;-64
2022/07/11 03:47:32;;;;;;;7.18;5.07;;;;;;;20.67;57.33;102301.16;4983972;28;123358;-64
2022/07/11 03:50:00;;;;;;;10.60;5.20;;;;;;;20.69;57.75;102298.34;4988124;28;114380;-64
2022/07/11 03:52:28;;;;;;;8.65;4.85;;;;;;;20.69;57.37;102293.81;4987602;28;114038;-64
2022/07/11 03:54:55;;;;;;;8.43;4.43;;;;;;;20.71;57.62;102291.91;4982698;28;124141;-65
2022/07/11 03:57:22;;;;;;;7.97;5.25;;;;;;;20.72;57.53;102290.94;4985934;28;124557;-64
2022/07/11 03:59:49;;;;;;;7.75;5.03;;;;;;;20.73;57.47;102300.75;4984579;28;115240;-64
2022/07/11 04:02:16;;;;;;;7.70;4.88;;;;;;;20.74;57.59;102297.09;4985994;28;114039;-64
2022/07/11 04:04:44;;;;;;;7.35;4.70;;;;;;;20.73;57.66;102289.97;4989883;28;124492;-64
2022/07/11 04:07:11;;;;;;;9.55;4.80;;;;;;;20.73;57.65;102300.75;4984734;28;124290;-64
2022/07/11 04:09:38;;;;;;;9.50;4.50;;;;;;;20.72;57.58;102293.63;4988144;28;114453;-64
2022/07/11 04:12:05;;;;;;;8.10;4.72;;;;;;;20.72;57.78;102299.03;4983945;28;114428;-64
2022/07/11 04:14:33;;;;;;;8.18;4.50;;;;;;;20.72;57.79;102293.63;4986120;28;123776;-64
2022/07/11 04:17:00;;;;;;;9.27;4.68;;;;;;;20.73;57.74;102291.81;4986478;28;123773;-64
2022/07/11 04:19:27;;;;;;;6.68;4.32;;;;;;;20.71;57.80;102286.50;4986824;28;115498;-66
2022/07/11 04:21:54;;;;;;;7.97;4.43;;;;;;;20.71;57.87;102297.28;4984162;28;115267;-67
2022/07/11 04:24:21;;;;;;;9.52;3.97;;;;;;;20.71;57.93;102297.28;4985442;28;124132;-66
2022/07/11 04:26:48;;;;;;;5.40;3.50;;;;;;;20.73;57.92;102295.34;4986081;28;123681;-65
2022/07/11 04:29:15;;;;;;;5.70;3.42;;;;;;;20.72;58.01;102288.25;4986058;28;114044;-66
2022/07/11 04:31:43;;;;;;;7.43;3.55;;;;;;;20.73;57.91;102299.88;4989608;28;114008;-66
2022/07/11 04:34:10;;;;;;;8.00;3.40;;;;;;;20.73;57.90;102295.34;4985404;28;123973;-66
2022/07/11 04:36:37;;;;;;;6.57;3.30;;;;;;;20.72;57.97;102299.03;4986162;28;123712;-66
2022/07/11 04:39:04;;;;;;;8.10;3.45;;;;;;;20.73;58.26;102295.34;4984085;28;114150;-66
2022/07/11 04:41:32;;;;;;;5.53;3.53;;;;;;;20.74;58.20;102291.72;4971728;28;111911;-66
2022/07/11 04:43:59;;;;;;;7.82;3.10;;;;;;;20.76;58.15;102305.94;4988118;28;123350;-66
2022/07/11 04:46:26;;;;;;;5.45;2.70;;;;;;;20.77;58.20;102307.66;4986483;28;123747;-66
2022/07/11 04:48:54;;;;;;;4.30;2.30;;;;;;;20.77;58.21;102307.66;4986068;28;113982;-66
2022/07/11 04:51:21;;;;;;;5.88;2.40;;;;;;;20.77;58.22;102307.66;4987812;28;113987;-66
2022/07/11 04:53:48;;;;;;;6.70;2.50;;;;;;;20.79;58.18;102311.13;4988265;28;123175;-66
2022/07/11 04:56:15;;;;;;;4.50;2.15;;;;;;;20.82;58.19;102309.19;4985056;28;123930;-66
2022/07/11 04:58:43;;;;;;;5.82;2.30;;;;;;;20.84;58.33;102312.66;4986368;28;114163;-66
2022/07/11 05:01:10;;;;;;;3.92;2.10;;;;;;;20.87;58.08;102317.81;4987868;28;112724;-66
2022/07/11 05:03:37;;;;;;;4.57;1.90;;;;;;;20.86;58.13;102316.13;4984701;28;123846;-66
2022/07/11 05:06:06;;;;;;;2.78;1.73;;;;;;;20.86;58.18;102321.50;4985554;28;123844;-66
2022/07/11 05:08:36;;;;;;;4.30;1.92;;;;;;;20.85;58.10;102319.75;4982573;28;115149;-66
2022/07/11 05:11:04;;;;;;;6.40;2.03;;;;;;;20.85;58.15;102325.13;4985221;28;114019;-66
2022/07/11 05:13:32;;;;;;;2.80;2.08;;;;;;;20.85;58.38;102319.75;4988582;28;124111;-66
2022/07/11 05:15:59;;;;;;;4.13;2.00;;;;;;;20.86;58.34;102321.50;4989145;28;124218;-66
2022/07/11 05:18:26;;;;;;;5.50;2.40;;;;;;;20.86;58.42;102326.88;4987934;28;114202;-66
2022/07/11 05:20:53;;;;;;;4.15;2.15;;;;;;;20.87;58.42;102328.59;4988543;28;112812;-65
2022/07/11 05:23:21;;;;;;;3.42;1.80;;;;;;;20.86;58.60;102332.28;4990798;28;122976;-66
2022/07/11 05:25:48;;;;;;;3.20;1.98;;;;;;;20.85;58.63;102327.84;4982940;28;123283;-66
2022/07/11 05:28:15;;;;;;;3.88;2.00;;;;;;;20.84;58.59;102331.50;4984302;28;114689;-65
2022/07/11 05:30:42;;;;;;;4.57;2.13;;;;;;;20.83;58.72;102332.47;4985382;28;114309;-65
2022/07/11 05:33:10;;;;;;;3.22;2.10;;;;;;;20.84;58.95;102334.19;4982499;28;124001;-66
2022/07/11 05:35:37;;;;;;;3.65;2.10;;;;;;;20.84;58.99;102329.66;4987378;28;124437;-66
2022/07/11 05:38:04;;;;;;;4.18;1.90;;;;;;;20.86;58.86;102327.75;4983120;28;114678;-65
2022/07/11 05:40:31;;;;;;;3.55;1.98;;;;;;;20.86;58.92;102337.66;4990836;28;112749;-66
2022/07/11 05:43:00;;;;;;;4.75;2.10;;;;;;;20.87;59.15;102333.97;4987923;28;122820;-66
2022/07/11 05:45:28;;;;;;;5.07;2.20;;;;;;;20.89;59.01;102342.81;4988921;28;124302;-66
2022/07/11 05:47:55;;;;;;;3.22;1.80;;;;;;;20.91;58.90;102340.91;4989279;28;114024;-65
2022/07/11 05:50:22;;;;;;;4.65;2.20;;;;;;;20.91;59.03;102340.91;4988986;28;113346;-66
2022/07/11 05:52:49;;;;;;;3.55;2.17;;;;;;;20.91;59.18;102343.63;4986490;28;124101;-66
2022/07/11 05:55:16;;;;;;;4.35;2.20;;;;;;;20.94;59.16;102351.47;4989156;28;124103;-66
2022/07/11 05:57:45;;;;;;;3.47;2.22;;;;;;;20.94;59.26;102351.47;4984633;28;115029;-65
2022/07/11 06:00:13;;;;;;;3.13;1.80;;;;;;;20.94;59.20;102352.34;4989895;28;114561;-65
2022/07/11 06:02:42;;;;;;;3.17;1.88;;;;;;;20.95;59.18;102343.31;4989328;28;124654;-64
2022/07/11 06:05:11;;;;;;;3.70;2.25;;;;;;;20.96;59.34;102354.94;4990571;28;124703;-65
2022/07/11 06:10:27;;;;;;;3.70;2.50;;;;;;;20.97;59.30;102356.69;4987047;28;114575;-65
2022/07/11 06:12:56;;;;;;;5.95;2.03;;;;;;;20.96;59.31;102365.72;4970988;28;123427;-64
2022/07/11 06:15:23;;;;;;;5.25;2.45;;;;;;;20.96;59.40;102360.31;4986485;28;124193;-64
2022/07/11 06:17:50;;;;;;;2.70;2.30;;;;;;;20.95;59.51;102359.47;4984615;28;114623;-64
2022/07/11 06:20:18;;;;;;;4.03;2.60;;;;;;;20.95;59.46;102353.22;4989888;28;114302;-64
2022/07/11 06:22:45;;;;;;;5.25;3.10;;;;;;;20.96;59.60;102363.91;4986258;28;123094;-64
2022/07/11 06:25:12;;;;;;;6.05;3.05;;;;;;;21.03;59.74;102360.81;4986715;28;123816;-65
2022/07/11 06:27:39;;;;;;;5.38;2.80;;;;;;;21.06;59.82;102361.47;4987565;28;114785;-64
2022/07/11 06:30:07;;;;;;;5.25;3.08;;;;;;;21.11;59.73;102359.31;4990891;28;114234;-64
2022/07/11 06:32:34;;;;;;;3.58;2.70;;;;;;;21.16;59.72;102357.19;4991291;28;124147;-64
2022/07/11 06:35:01;;;;;;;2.67;2.28;;;;;;;21.19;59.79;102357.00;4989726;28;125122;-63
2022/07/11 06:37:28;;;;;;;5.03;2.67;;;;;;;21.26;59.72;102361.97;4988764;28;114272;-64
2022/07/11 06:39:56;;;;;;;5.15;2.42;;;;;;;21.28;59.60;102360.03;4989673;28;114338;-64
2022/07/11 06:42:23;;;;;;;5.63;2.28;;;;;;;21.29;59.46;102361.78;4986920;28;124349;-64
2022/07/11 06:44:54;;;;;;;4.28;2.03;;;;;;;21.30;59.33;102363.50;4983094;28;124170;-64
2022/07/11 06:47:22;;;;;;;4.78;2.00;;;;;;;21.30;59.41;102363.50;4985603;28;115879;-63
2022/07/11 06:49:49;;;;;;;3.58;2.10;;;;;;;21.31;59.46;102360.72;4988484;28;114823;-64
2022/07/11 06:52:16;;;;;;;3.38;2.10;;;;;;;21.34;59.36;102355.13;4989231;28;124097;-63
2022/07/11 06:54:43;;;;;;;3.95;2.10;;;;;;;21.37;59.24;102360.28;4978327;28;124115;-64
2022/07/11 06:57:10;;;;;;;3.17;2.00;;;;;;;21.39;59.27;102350.25;4976052;28;114402;-63
2022/07/11 06:59:39;;;;;;;4.20;1.80;;;;;;;21.40;59.33;102348.47;4980483;28;113934;-63
2022/07/11 07:02:06;;;;;;;2.63;1.73;;;;;;;21.43;58.89;102348.22;4982717;28;124234;-64
2022/07/11 07:04:34;;;;;;;3.55;1.60;;;;;;;21.46;59.35;102350.75;4979002;28;123889;-63
2022/07/11 07:07:01;;;;;;;3.22;1.60;;;;;;;21.49;59.21;102347.88;4985180;28;114209;-63
2022/07/11 07:09:29;;;;;;;1.67;1.30;;;;;;;21.53;59.29;102338.59;4989163;28;114566;-63
2022/07/11 07:11:56;;;;;;;2.95;1.40;;;;;;;21.58;59.20;102341.84;4977142;28;124158;-64
2022/07/11 07:14:23;;;;;;;2.08;1.40;;;;;;;21.64;59.23;102345.94;4973938;28;123923;-64
2022/07/11 07:16:51;;;;;;;2.75;1.50;;;;;;;21.71;58.95;102341.00;4977829;28;114593;-64
2022/07/11 07:19:18;;;;;;;3.17;1.30;;;;;;;21.76;58.61;102344.25;4969013;28;115275;-63
2022/07/11 07:21:45;;;;;;;3.38;1.67;;;;;;;21.81;58.73;102346.63;4979095;28;124164;-64
2022/07/11 07:24:13;;;;;;;2.08;1.40;;;;;;;21.85;58.66;102346.31;4987291;28;122959;-64
2022/07/11 07:26:44;;;;;;;3.45;1.40;;;;;;;21.88;58.48;102348.78;4978136;28;114858;-63
2022/07/11 07:29:11;;;;;;;2.75;1.30;;;;;;;21.93;58.44;102343.94;4989361;28;113963;-64
2022/07/11 07:31:39;;;;;;;2.85;1.40;;;;;;;22.00;58.14;102346.22;4977837;28;123861;-64
2022/07/11 07:34:08;;;;;;;1.73;1.40;;;;;;;22.03;57.89;102335.22;4988238;28;124648;-64
2022/07/11 07:36:35;;;;;;;2.65;1.40;;;;;;;22.05;58.07;102330.56;4982180;28;115515;-64
2022/07/11 07:39:03;;;;;;;2.50;1.50;;;;;;;22.08;58.01;102328.53;4982459;28;115233;-64
2022/07/11 07:41:30;;;;;;;4.13;1.40;;;;;;;22.15;57.78;102334.34;4990321;28;123981;-64
2022/07/11 07:43:57;;;;;;;2.25;1.52;;;;;;;22.21;57.76;102333.94;4988658;28;124211;-64
2022/07/11 07:46:24;;;;;;;1.92;1.30;;;;;;;22.24;57.41;102344.50;4985006;28;114123;-63
2022/07/11 07:48:52;;;;;;;2.10;1.40;;;;;;;22.20;57.53;102337.59;4980750;28;113710;-64
2022/07/11 07:51:20;;;;;;;1.80;1.40;;;;;;;22.17;57.68;102343.22;4981404;28;124419;-63
2022/07/11 07:53:48;;;;;;;2.50;1.70;;;;;;;22.19;57.71;102341.28;4980372;28;124510;-64
2022/07/11 07:56:23;;;;;;;4.20;1.83;;;;;;;22.21;57.78;102350.13;4986954;28;114424;-64
2022/07/11 07:58:54;;;;;;;2.13;1.50;;;;;;;22.22;57.53;102343.75;4987045;28;114712;-64
2022/07/11 08:01:36;;;;;;;1.95;1.25;;;;;;;22.21;57.70;102343.84;4985248;28;124178;-64
2022/07/11 08:04:08;;;;;;;2.90;1.33;;;;;;;22.17;57.39;102354.00;4989162;28;123479;-64
2022/07/11 08:06:36;;;;;;;1.75;1.40;;;;;;;22.16;57.56;102360.38;4984559;28;114305;-64
2022/07/11 08:09:04;;;;;;;3.88;1.48;;;;;;;22.16;57.48;102358.53;4984419;28;113654;-63
2022/07/11 08:11:33;;;;;;;2.00;1.55;;;;;;;22.18;57.36;102355.72;4984365;28;124514;-64
2022/07/11 08:14:01;;;;;;;2.38;1.58;;;;;;;22.20;57.41;102353.78;4987113;28;123721;-64
2022/07/11 08:16:29;;;;;;;1.80;1.20;;;;;;;22.23;57.24;102364.38;4986765;28;115906;-64
2022/07/11 08:19:01;;;;;;;1.65;1.30;;;;;;;22.24;57.37;102363.38;4987068;28;114013;-64
2022/07/11 08:21:29;;;;;;;2.25;1.10;;;;;;;22.26;57.20;102364.16;4986370;28;124885;-64
2022/07/11 08:23:57;;;;;;;1.95;1.10;;;;;;;22.31;57.36;102367.41;4987670;28;123830;-65
2022/07/11 08:26:24;;;;;;;1.80;1.10;;;;;;;22.38;57.46;102369.66;4988237;28;115530;-64
2022/07/11 08:28:58;;;;;;;1.55;1.20;;;;;;;22.46;57.10;102359.22;4981589;28;115166;-64
2022/07/11 08:31:25;;;;;;;2.75;1.10;;;;;;;22.53;56.98;102361.38;4987981;28;123407;-64
2022/07/11 08:33:53;;;;;;;1.65;1.10;;;;;;;22.60;56.84;102361.75;4982560;28;125003;-65
2022/07/11 08:36:20;;;;;;;1.42;1.00;;;;;;;22.65;56.50;102359.59;4986249;28;114223;-64
2022/07/11 08:38:47;;;;;;;2.20;1.00;;;;;;;22.70;56.17;102362.84;4983893;28;114088;-64
2022/07/11 08:41:16;;;;;;;1.65;0.80;;;;;;;22.70;55.79;102365.53;4981357;28;124068;-64
2022/07/11 08:43:43;;;;;;;2.72;1.05;;;;;;;22.67;55.71;102357.66;4989113;28;123837;-64
2022/07/11 08:46:11;;;;;;;1.58;0.95;;;;;;;22.66;55.71;102363.16;4991070;28;113081;-64
2022/07/11 08:48:42;;;;;;;1.10;0.95;;;;;;;22.65;55.82;102370.41;4984569;28;114393;-64
2022/07/11 08:51:09;;;;;;;1.83;1.00;;;;;;;22.64;55.64;102366.00;4990617;28;124881;-64
2022/07/11 08:53:44;;;;;;;1.77;1.15;;;;;;;22.62;55.57;102370.66;4987773;28;123988;-64
2022/07/11 08:56:21;;;;;;;1.70;1.10;;;;;;;22.63;55.58;102366.97;4988242;28;114382;-64
2022/07/11 08:58:49;;;;;;;1.38;1.10;;;;;;;22.67;55.71;102354.94;4979329;28;113846;-64
2022/07/11 09:01:29;;;;;;;1.75;1.10;;;;;;;22.73;55.37;102365.34;4985042;28;124020;-64
2022/07/11 09:03:58;;;;;;;1.67;0.90;;;;;;;22.77;55.36;102360.53;4980845;28;124218;-64
2022/07/11 09:06:26;;;;;;;2.05;1.15;;;;;;;22.82;55.27;102360.22;4986720;28;112581;-64
2022/07/11 09:09:00;;;;;;;1.73;1.20;;;;;;;22.83;55.15;102359.22;4982583;28;114105;-64
2022/07/11 09:11:47;;;;;;;1.73;1.40;;;;;;;22.86;54.96;102356.31;4986159;28;124234;-64
2022/07/11 09:14:22;;;;;;;2.25;1.45;;;;;;;22.88;55.00;102359.78;4987633;28;122701;-64
2022/07/11 09:16:56;;;;;;;2.13;1.20;;;;;;;22.92;55.09;102361.25;4982991;28;115161;-64
2022/07/11 09:19:26;;;;;;;1.50;1.10;;;;;;;22.95;54.91;102366.44;4978532;28;114682;-64
2022/07/11 09:27:49;;;;;;;2.63;1.30;;;;;;;22.95;54.80;102366.44;4988543;28;114733;-65
2022/07/11 09:30:22;;;;;;;2.10;1.42;;;;;;;22.93;54.72;102368.41;4986524;28;114056;-64
2022/07/11 09:32:54;;;;;;;2.15;1.40;;;;;;;22.91;54.88;102365.81;4988448;28;123758;-64
2022/07/11 09:35:23;;;;;;;2.40;1.50;;;;;;;22.90;54.86;102369.47;4971264;28;125233;-63
2022/07/11 09:37:50;;;;;;;2.20;1.50;;;;;;;22.91;55.04;102364.97;4990938;28;113824;-64
2022/07/11 09:40:18;;;;;;;2.83;1.50;;;;;;;22.94;54.97;102370.13;4983291;28;114009;-63
2022/07/11 09:42:56;;;;;;;2.08;1.40;;;;;;;22.96;54.89;102365.47;4989736;28;124415;-64
2022/07/11 09:45:25;;;;;;;1.90;1.40;;;;;;;22.99;54.75;102361.69;4975435;28;123740;-64
2022/07/11 09:47:58;;;;;;;2.70;1.40;;;;;;;23.00;54.76;102361.59;4983846;28;114117;-63
2022/07/11 09:50:28;;;;;;;2.13;1.60;;;;;;;23.04;54.57;102355.00;4992648;28;114631;-65
2022/07/11 09:53:06;;;;;;;1.55;1.30;;;;;;;23.04;54.48;102355.00;4990122;28;123077;-64
2022/07/11 09:55:46;;;;;;;2.75;1.48;;;;;;;23.06;54.74;102363.84;4988013;28;123710;-64
2022/07/11 09:58:18;;;;;;;2.03;1.42;;;;;;;23.13;54.47;102362.44;4981697;28;114153;-64
2022/07/11 10:00:45;;;;;;;2.30;1.40;;;;;;;23.21;54.53;102361.84;4983837;28;113980;-64
2022/07/11 10:03:13;;;;;;;2.28;1.40;;;;;;;23.30;54.28;102361.16;4988086;28;124179;-64
2022/07/11 10:06:00;;;;;;;3.17;1.42;;;;;;;23.39;54.16;102359.59;4982756;28;123960;-64
2022/07/11 10:08:27;;;;;;;2.28;1.48;;;;;;;23.49;54.36;102355.22;4978561;28;115240;-64
2022/07/11 10:10:55;;;;;;;1.95;1.58;;;;;;;23.62;54.22;102365.09;4986537;28;113998;-64
2022/07/11 10:13:23;;;;;;;2.65;1.50;;;;;;;23.71;53.91;102365.28;4983806;28;124866;-64
2022/07/11 10:15:54;;;;;;;2.53;1.90;;;;;;;23.76;53.64;102364.06;4974844;28;123833;-64
2022/07/11 10:18:27;;;;;;;2.65;1.90;;;;;;;23.77;53.63;102368.47;4985375;28;114355;-64
2022/07/11 10:21:06;;;;;;;3.05;1.80;;;;;;;23.80;53.46;102374.53;4981719;28;114270;-64
2022/07/11 10:23:42;;;;;;;2.38;1.80;;;;;;;23.80;53.36;102363.72;4983357;28;124271;-64
2022/07/11 10:26:25;;;;;;;2.97;1.30;;;;;;;23.82;53.35;102372.59;4984222;28;123376;-64
2022/07/11 10:28:55;;;;;;;2.97;1.60;;;;;;;23.80;53.20;102369.13;4989901;28;114145;-64
2022/07/11 10:31:24;;;;;;;2.65;1.30;;;;;;;23.78;53.09;102373.78;4977375;28;113737;-64
2022/07/11 10:34:18;;;;;;;3.53;1.50;;;;;;;23.76;53.27;102374.88;4984096;28;124217;-64
2022/07/11 10:36:46;;;;;;;2.22;1.77;;;;;;;23.75;53.19;102374.00;4983902;28;123905;-64
2022/07/11 10:39:27;;;;;;;2.97;1.60;;;;;;;23.75;53.23;102371.28;4983148;28;114680;-64
2022/07/11 10:41:55;;;;;;;2.28;1.55;;;;;;;23.76;53.11;102373.03;4987475;28;114029;-64
2022/07/11 10:44:24;;;;;;;2.22;1.48;;;;;;;23.77;53.25;102368.47;4989835;28;124023;-64
2022/07/11 10:46:52;;;;;;;1.92;1.60;;;;;;;23.81;53.51;102376.28;4989367;28;123186;-64
2022/07/11 10:49:48;;;;;;;1.50;1.20;;;;;;;23.87;53.35;102381.22;4983566;28;114553;-65
2022/07/11 10:52:22;;;;;;;2.28;1.50;;;;;;;23.97;53.29;102385.91;4976812;28;113313;-64
2022/07/11 10:55:31;;;;;;;2.65;1.65;;;;;;;24.00;52.99;102374.88;4988484;28;124666;-64
2022/07/11 10:58:13;;;;;;;3.58;1.42;;;;;;;24.03;52.71;102383.59;4987704;28;123813;-64
2022/07/11 11:00:40;;;;;;;2.08;1.50;;;;;;;24.07;52.76;102390.50;4981444;28;115336;-64
2022/07/11 11:03:11;;;;;;;1.92;1.20;;;;;;;24.11;52.66;102383.00;4991002;28;114125;-64
2022/07/11 11:05:50;;;;;;;2.85;1.65;;;;;;;24.13;52.59;102380.16;4985356;28;124016;-64
2022/07/11 11:08:35;;;;;;;2.38;1.60;;;;;;;24.15;52.49;102379.06;4984894;28;124857;-65
2022/07/11 11:11:08;;;;;;;2.28;1.80;;;;;;;24.17;52.44;102382.53;4990007;28;113092;-64
2022/07/11 11:13:36;;;;;;;2.95;1.63;;;;;;;24.22;52.51;102374.03;4987871;28;113828;-64
2022/07/11 11:16:30;;;;;;;2.58;1.50;;;;;;;24.27;52.63;102375.38;4986636;28;124121;-64
2022/07/11 11:18:57;;;;;;;2.13;1.58;;;;;;;24.39;52.92;102380.81;4985049;28;124944;-64
2022/07/11 11:21:24;;;;;;;2.85;1.80;;;;;;;24.47;52.61;102383.78;4989459;28;114621;-64
2022/07/11 11:24:02;;;;;;;3.05;1.73;;;;;;;24.55;52.40;102384.06;4990678;28;114777;-64
2022/07/11 11:26:44;;;;;;;3.15;1.60;;;;;;;24.61;52.43;102386.25;4987244;28;124806;-64
2022/07/11 11:29:11;;;;;;;1.90;1.50;;;;;;;24.66;51.95;102389.47;4986888;28;124274;-64
2022/07/11 11:31:38;;;;;;;2.85;1.45;;;;;;;24.67;51.63;102385.75;4978375;28;114813;-64
2022/07/11 11:34:06;;;;;;;2.40;1.55;;;;;;;24.65;51.72;102387.75;4989063;28;114396;-64
2022/07/11 11:36:33;;;;;;;2.72;1.60;;;;;;;24.65;51.46;102387.75;4984613;28;124131;-64
2022/07/11 11:39:00;;;;;;;2.72;1.58;;;;;;;24.66;51.37;102389.47;4978659;28;123764;-64